Station info - map view · info · telemetry · weather · raw · status · beacons · messages · bulletins · browse · moving · my account
Callsign, ship name or locator: Clear       
It is possible to search using wildcards (*?) after a prefix. Example: OH*
APRS station K5BKW-9 - show graphs
Map loading...
Comment: 146.520MHz
Location: 38°47.31' N 77°04.67' W - locator FM18LS09PF - show map - static map
6.5 miles South bearing 167° from Arlington, Arlington County, Virginia, United States [?]
7.7 miles South bearing 197° from Washington, D. C., Washington, D.C., United States
42.7 miles Southwest bearing 216° from Baltimore, City of Baltimore, Maryland, United States
Last position: 2019-06-20 00:00:02 EDT (11h3m ago)
2019-06-20 00:00:02 EDT local time at Arlington, United States [?]
Altitude: 45 ft
Course: 351°
Speed: 2 MPH
Device: Open Source: APRSdroid (app, Android)
Last path: K5BKW-9>APDR14 via NV4FM-5*,WIDE1*,WIDE2-2,qAR,W4KEL-12 (good)
Positions stored: 2590
Packet rate: 122 seconds between packets on average during 5981 seconds.
Stations near current position of K5BKW-9 - show more
callsign distance last heard - EDT      callsign distance last heard - EDT
KA4GFY1.1 miles 230°2019-06-16 15:39:41 N4ASX-11.2 miles 223°2019-06-08 13:48:16
WJ4VA-11.5 miles 34°2019-06-06 15:38:05 W4EDF C1.7 miles 160°2019-06-20 10:45:23
W4EDF-C1.7 miles 160°2019-06-20 10:45:33 ALXTest1.9 miles 9°2019-06-20 10:46:58
CW62942.2 miles 329°2019-06-20 10:56:54 DW81062.4 miles 293°2019-06-18 15:17:09
W4HFH A2.8 miles 328°2019-06-20 10:47:50 W4HFH AD2.8 miles 328°2019-06-20 10:47:52
W4HFH C2.8 miles 328°2019-06-20 10:47:51 W4HFH B2.8 miles 328°2019-06-20 10:47:53
W4HFH-A2.8 miles 328°2019-06-20 10:47:36 W4HFH-B2.8 miles 328°2019-06-20 10:47:35
W4HFH-C2.8 miles 328°2019-06-20 10:47:33 W4HFH-152.9 miles 302°2019-06-19 20:24:45
FW27853.0 miles 250°2019-06-20 11:01:25 K2UX-13.2 miles 278°2019-06-20 05:51:41
KV3W-73.4 miles 312°2019-06-17 18:07:38 KK4STG B3.5 miles 237°2019-06-20 10:48:04
Stations which heard K5BKW-9 directly on radio –
callsign pkts first heard - EDT last heard longest (tx => rx) longest at - EDT
N3HF-1 7 2019-06-19 13:47:38 2019-06-19 23:52:59 FM18JV > FM18GQ 17.8 miles 217° 2019-06-19 13:47:38
K4EME-3 7 2019-06-19 16:12:48 2019-06-19 22:09:05 FM08UM > FM08ID 62.5 miles 246° 2019-06-19 16:12:48
W4RAT-2 1 2019-06-19 22:26:47 2019-06-19 22:26:47 FM18AG > FM17FU 36.0 miles 141° 2019-06-19 22:26:47
NV4FM-5 10 2019-06-19 13:30:25 2019-06-20 00:00:02 FM18LS > FM18JV 11.0 miles 318° 2019-06-20 00:00:02
W4IY 5 2019-06-19 23:23:22 2019-06-19 23:47:57 FM18IN > FM18IP 5.4 miles 28° 2019-06-19 23:23:22
KV3B-1 2 2019-06-19 13:45:22 2019-06-19 13:46:56 FM18JU > FM19JE 22.0 miles 356° 2019-06-19 13:45:22
KJ4RPW-3 43 2019-06-19 14:40:13 2019-06-19 22:29:38 FM18AQ > FM07SX 54.6 miles 210° 2019-06-19 14:40:13
W4VA-10 25 2019-06-19 13:48:07 2019-06-19 23:45:00 FM18JV > FM18BR 34.8 miles 253° 2019-06-19 13:48:07
AE4ML-1 10 2019-06-19 22:53:29 2019-06-19 23:08:41 FM18FG > FM18GH 4.2 miles 79° 2019-06-19 22:53:29
W4KEL-1 14 2019-06-19 16:49:58 2019-06-19 22:04:13 FM08VD > FM08RD 18.7 miles 275° 2019-06-19 22:04:13
K4MRA-4 1 2019-06-19 14:48:26 2019-06-19 14:48:26 FM08WR > FM08OU 38.3 miles 284° 2019-06-19 14:48:26
KK4NDE-3 3 2019-06-19 23:02:03 2019-06-19 23:03:09 FM18GH > FM18GF 3.6 miles 165° 2019-06-19 23:03:09
W4KEL-12 70 2019-06-19 13:57:40 2019-06-19 23:04:53 FM18HU > FM08QH 75.7 miles 240° 2019-06-19 13:57:40
K3HKI-1 1 2019-06-19 23:28:41 2019-06-19 23:28:41 FM18IP > FM18QJ 39.3 miles 117° 2019-06-19 23:28:41
WC4J-3 2 2019-06-19 14:03:33 2019-06-19 14:08:52 FM18ET > FM18FT 4.2 miles 96° 2019-06-19 14:08:52
WR4CV-4 3 2019-06-19 16:49:59 2019-06-19 21:40:56 FM08SD > FM07MV 32.0 miles 242° 2019-06-19 16:49:59
KM4CWX-2 4 2019-06-19 23:14:45 2019-06-19 23:20:56 FM18HN > FM18HJ 9.8 miles 201° 2019-06-19 23:20:56
K4BBB-1 3 2019-06-19 13:47:10 2019-06-19 13:52:11 FM18IU > FM18JV 4.9 miles 73° 2019-06-19 13:52:11
N4FKH-10 1 2019-06-19 23:52:59 2019-06-19 23:52:59 FM18JS > FM18KT 2.8 miles 11° 2019-06-19 23:52:59
KA4RRU 1 2019-06-19 14:08:50 2019-06-19 14:08:50 FM18ET > FM18DN 17.2 miles 192° 2019-06-19 14:08:50
K0DEV-1 3 2019-06-19 13:45:21 2019-06-19 13:47:37 FM18JU > FM18JV 1.0 miles 28° 2019-06-19 13:45:21

Only position packets which were originated by the station are shown here. The range statistics show some extra long hops, because some digipeaters do not correctly add themselves to the digipeater path. Please check the raw packets.
About this site
This page shows real-time information collected from the Automatic Position Reporting System Internet network (APRS-IS). APRS is used by amateur (ham) radio operators to transmit real-time position information, weather data, telemetry and messages over the radio. A vehicle equipped with a GPS receiver, a VHF transmitter or HF transceiver and a small computer device called a tracker transmits it's location, speed and course in a small data packet, which is then received by a nearby iGate receiving site which forwards the packet on the Internet. Systems connected to the Internet can send information on the APRS-IS without a radio transmitter, or collect and display information transmitted anywhere in the world.
FAQ · Blog · Discussion group · Linking to aprs.fi · AIS sites · Service status · Database statistics · Advertising on aprs.fi · Technical details · API · Change log · Planned changes · Credits and thanks · Terms Of Service · iPhone/iPad APRS